Time;durP1;ratioP1;P1;durP2;ratioP2;P2;SDS_P1;SDS_P2;PMS_P1;PMS_P2;Temp;Humidity;BMP_temperature;BMP_pressure;BME280_temperature;BME280_humidity;BME280_pressure;Samples;Min_cycle;Max_cycle;Signal;HPM_P1;HPM_P2
2022/09/16 00:02:18;;;;;;;2.92;1.23;;;13.40;99.90;;;;;;5133568;27;20164;-54
2022/09/16 00:04:44;;;;;;;4.85;1.42;;;13.40;99.90;;;;;;5133009;27;20238;-53
2022/09/16 00:07:09;;;;;;;4.38;1.33;;;13.40;99.90;;;;;;5133052;27;20164;-55
2022/09/16 00:09:37;;;;;;;4.63;1.40;;;13.40;99.90;;;;;;5133188;27;20164;-52
2022/09/16 00:12:03;;;;;;;5.32;1.33;;;13.50;99.90;;;;;;5133728;27;20190;-54
2022/09/16 00:14:29;;;;;;;3.35;1.23;;;13.40;99.90;;;;;;5133326;27;20667;-55
2022/09/16 00:16:55;;;;;;;3.08;1.10;;;13.40;99.90;;;;;;5133216;27;20168;-52
2022/09/16 00:19:21;;;;;;;4.10;1.10;;;13.30;99.90;;;;;;5133230;27;20633;-53
2022/09/16 00:21:47;;;;;;;1.98;1.30;;;13.40;99.90;;;;;;5133256;27;20172;-53
2022/09/16 00:24:14;;;;;;;4.10;1.67;;;13.30;99.90;;;;;;5133290;27;20200;-55
2022/09/16 00:26:40;;;;;;;5.30;1.55;;;13.30;99.90;;;;;;5132984;27;20634;-55
2022/09/16 00:29:06;;;;;;;4.90;1.80;;;13.30;99.90;;;;;;5133074;27;20191;-55
2022/09/16 00:31:32;;;;;;;4.25;1.50;;;13.30;99.90;;;;;;5133390;27;20203;-52
2022/09/16 00:33:57;;;;;;;3.60;1.40;;;13.30;99.90;;;;;;5132949;27;20271;-55
2022/09/16 00:36:23;;;;;;;1.58;0.88;;;13.30;99.90;;;;;;5132896;27;20171;-52
2022/09/16 00:38:53;;;;;;;3.80;1.60;;;13.30;99.90;;;;;;5132978;27;20678;-53
2022/09/16 00:41:23;;;;;;;4.28;1.30;;;13.30;99.90;;;;;;5133099;27;20172;-53
2022/09/16 00:43:48;;;;;;;5.43;1.40;;;13.30;99.90;;;;;;5132683;27;20195;-54
2022/09/16 00:46:16;;;;;;;2.35;1.40;;;13.20;99.90;;;;;;5132727;27;20199;-54
2022/09/16 00:48:42;;;;;;;7.95;1.80;;;13.20;99.90;;;;;;5132820;27;20632;-55
2022/09/16 00:51:10;;;;;;;2.97;1.10;;;13.10;99.90;;;;;;5132637;27;20198;-53
2022/09/16 00:53:41;;;;;;;5.80;1.40;;;13.20;99.90;;;;;;5132642;27;20217;-54
2022/09/16 00:56:11;;;;;;;3.92;1.30;;;13.10;99.90;;;;;;5132775;27;20498;-52
2022/09/16 00:58:47;;;;;;;5.00;1.63;;;13.20;99.90;;;;;;5132844;28;20254;-54
2022/09/16 01:01:13;;;;;;;6.85;1.65;;;13.10;99.90;;;;;;5132637;28;20166;-54
2022/09/16 01:03:45;;;;;;;2.25;1.25;;;13.10;99.90;;;;;;5132735;28;20175;-54
2022/09/16 01:06:12;;;;;;;4.55;2.05;;;13.10;99.90;;;;;;5132595;28;20640;-53
2022/09/16 01:08:41;;;;;;;7.65;1.70;;;13.10;99.90;;;;;;5132877;28;20622;-54
2022/09/16 01:11:06;;;;;;;5.47;1.40;;;13.10;99.90;;;;;;5132740;28;20233;-52
2022/09/16 01:13:32;;;;;;;6.57;1.52;;;13.10;99.90;;;;;;5132810;28;20633;-52
2022/09/16 01:16:10;;;;;;;4.97;1.70;;;13.10;99.90;;;;;;5132437;27;20162;-52
2022/09/16 01:18:53;;;;;;;4.70;1.60;;;13.10;99.90;;;;;;5136678;27;20556;-51
2022/09/16 01:21:34;;;;;;;2.65;1.13;;;13.20;99.90;;;;;;5136695;27;20168;-52
2022/09/16 01:24:03;;;;;;;5.43;1.65;;;13.30;99.90;;;;;;5136849;27;20742;-52
2022/09/16 01:26:34;;;;;;;4.05;1.48;;;13.40;99.90;;;;;;5136516;27;20175;-51
2022/09/16 01:29:41;;;;;;;4.70;1.48;;;13.30;99.90;;;;;;5137195;27;20164;-51
2022/09/16 01:32:11;;;;;;;5.38;1.70;;;13.30;99.90;;;;;;5073212;28;20205;-52
2022/09/16 01:34:56;;;;;;;7.05;1.30;;;13.30;99.90;;;;;;5073119;28;20264;-51
2022/09/16 01:37:55;;;;;;;9.43;1.98;;;13.30;99.90;;;;;;5112251;27;20588;-52
2022/09/16 01:40:42;;;;;;;8.68;1.85;;;13.40;99.90;;;;;;5136297;27;20174;-53
2022/09/16 01:43:24;;;;;;;6.85;2.47;;;13.40;99.90;;;;;;5136179;27;20162;-51
2022/09/16 01:46:26;;;;;;;5.72;1.92;;;13.40;99.90;;;;;;5136053;27;20732;-52
2022/09/16 01:49:24;;;;;;;5.43;2.03;;;13.30;99.90;;;;;;5103674;27;20180;-51
2022/09/16 01:51:49;;;;;;;4.35;2.33;;;13.30;99.90;;;;;;5131572;27;20168;-52
2022/09/16 01:54:47;;;;;;;6.10;1.77;;;13.20;99.90;;;;;;5135968;27;20219;-52
2022/09/16 01:57:18;;;;;;;7.18;2.33;;;13.20;99.90;;;;;;5132815;27;20180;-53
2022/09/16 01:59:49;;;;;;;3.85;1.73;;;13.20;99.90;;;;;;5135988;27;20164;-52
2022/09/16 02:02:26;;;;;;;4.93;2.00;;;13.20;99.90;;;;;;5135877;27;20171;-52
2022/09/16 02:04:57;;;;;;;7.47;2.47;;;13.20;99.90;;;;;;5136155;27;20215;-53
2022/09/16 02:07:30;;;;;;;5.72;2.55;;;13.20;99.90;;;;;;5135756;27;20160;-52
2022/09/16 02:09:59;;;;;;;7.63;2.00;;;13.20;99.90;;;;;;5135736;27;20217;-53
2022/09/16 02:12:31;;;;;;;5.85;2.17;;;13.20;99.90;;;;;;5135610;27;20160;-53
2022/09/16 02:15:04;;;;;;;7.25;2.25;;;13.20;99.90;;;;;;5135553;27;20164;-51
2022/09/16 02:17:32;;;;;;;4.63;1.92;;;13.20;99.90;;;;;;5135932;27;20167;-52
2022/09/16 02:20:08;;;;;;;3.80;1.70;;;13.20;99.90;;;;;;5135801;27;20565;-52
2022/09/16 02:22:38;;;;;;;4.65;2.10;;;13.30;99.90;;;;;;5135785;27;20604;-54
2022/09/16 02:25:07;;;;;;;9.55;2.20;;;13.20;99.90;;;;;;5135643;27;20204;-51
2022/09/16 02:27:35;;;;;;;7.72;2.00;;;13.20;99.90;;;;;;5135991;27;20208;-51
2022/09/16 02:30:11;;;;;;;4.20;2.10;;;13.20;99.90;;;;;;5133720;27;20167;-52
2022/09/16 02:32:44;;;;;;;5.30;2.42;;;13.20;99.90;;;;;;5135306;27;20160;-52
2022/09/16 02:35:13;;;;;;;8.80;2.40;;;13.30;99.90;;;;;;5135229;27;20633;-53
2022/09/16 02:37:45;;;;;;;4.43;2.25;;;13.20;99.90;;;;;;5135269;27;20247;-53
2022/09/16 02:40:17;;;;;;;4.78;2.13;;;13.20;99.90;;;;;;5135098;27;20168;-54
2022/09/16 02:42:43;;;;;;;5.30;1.85;;;13.20;99.90;;;;;;5135054;27;20164;-53
2022/09/16 02:45:09;;;;;;;8.73;2.10;;;13.10;99.90;;;;;;5134565;27;20196;-52
2022/09/16 02:48:03;;;;;;;4.65;1.90;;;13.10;99.90;;;;;;5135325;27;20181;-51
2022/09/16 02:50:57;;;;;;;8.32;1.90;;;13.10;99.90;;;;;;5135124;27;20172;-54
2022/09/16 02:53:45;;;;;;;4.97;1.77;;;13.10;99.90;;;;;;5134734;27;20215;-53
2022/09/16 02:56:26;;;;;;;8.77;2.42;;;13.00;99.90;;;;;;5134927;27;20153;-53
2022/09/16 02:58:52;;;;;;;4.28;2.25;;;13.00;99.90;;;;;;5134780;27;20530;-54
2022/09/16 03:01:18;;;;;;;7.28;2.28;;;12.90;99.90;;;;;;5134781;27;20164;-52
2022/09/16 03:03:44;;;;;;;7.07;2.30;;;12.90;99.90;;;;;;5134619;27;20243;-53
2022/09/16 03:06:17;;;;;;;9.73;2.55;;;13.00;99.90;;;;;;5134574;27;20287;-54
2022/09/16 03:08:44;;;;;;;5.00;2.00;;;13.00;99.90;;;;;;5134668;27;20684;-52
2022/09/16 03:11:34;;;;;;;7.50;1.90;;;13.00;99.90;;;;;;5134535;27;20540;-52
2022/09/16 03:14:35;;;;;;;7.55;2.22;;;12.90;99.90;;;;;;5135033;27;20171;-54
2022/09/16 03:17:30;;;;;;;5.43;2.00;;;13.00;99.90;;;;;;5133299;27;20574;-54
2022/09/16 03:20:23;;;;;;;8.00;2.10;;;13.00;99.90;;;;;;5131095;27;20709;-53
2022/09/16 03:22:55;;;;;;;7.50;1.90;;;12.90;99.90;;;;;;5134297;27;20584;-52
2022/09/16 03:25:41;;;;;;;5.70;1.70;;;12.90;99.90;;;;;;5134204;27;20203;-53
2022/09/16 03:28:19;;;;;;;7.38;1.90;;;13.00;99.90;;;;;;5134160;27;20528;-54
2022/09/16 03:31:04;;;;;;;4.75;1.70;;;12.90;99.90;;;;;;5134156;27;20179;-52
2022/09/16 03:33:33;;;;;;;4.85;1.92;;;12.90;99.90;;;;;;5134414;27;20211;-52
2022/09/16 03:36:04;;;;;;;8.73;2.80;;;12.90;99.90;;;;;;5134408;27;20164;-54
2022/09/16 03:38:32;;;;;;;4.47;2.22;;;12.90;99.90;;;;;;5134342;27;20251;-54
2022/09/16 03:40:58;;;;;;;10.07;2.50;;;12.90;99.90;;;;;;5133854;27;20160;-54
2022/09/16 03:43:24;;;;;;;9.63;2.20;;;13.00;99.90;;;;;;5133872;27;20172;-53
2022/09/16 03:45:50;;;;;;;9.23;2.17;;;13.00;99.90;;;;;;5133733;27;20563;-54
2022/09/16 03:48:16;;;;;;;5.75;2.20;;;13.00;99.90;;;;;;5133822;27;20171;-53
2022/09/16 03:50:41;;;;;;;8.52;2.70;;;12.90;99.90;;;;;;5133750;27;20175;-54
2022/09/16 03:53:07;;;;;;;6.85;2.38;;;13.00;99.90;;;;;;5133503;27;20214;-54
2022/09/16 03:55:33;;;;;;;6.97;2.08;;;13.00;99.90;;;;;;5132706;27;20203;-53
2022/09/16 03:57:58;;;;;;;6.65;2.17;;;12.90;99.90;;;;;;5133878;27;20195;-54
2022/09/16 04:00:24;;;;;;;6.30;2.30;;;12.90;99.90;;;;;;5133535;27;20175;-55
2022/09/16 04:02:49;;;;;;;4.80;2.05;;;12.90;99.90;;;;;;5133411;27;20164;-54
2022/09/16 04:05:15;;;;;;;8.35;2.40;;;12.90;99.90;;;;;;5133481;27;20203;-55
2022/09/16 04:07:41;;;;;;;7.78;2.20;;;12.90;99.90;;;;;;5133619;27;20210;-52
2022/09/16 04:10:07;;;;;;;7.13;2.33;;;12.80;99.90;;;;;;5133371;27;20210;-52
2022/09/16 04:12:33;;;;;;;4.60;2.13;;;12.80;99.90;;;;;;5133486;27;20168;-52
2022/09/16 04:14:58;;;;;;;5.70;2.65;;;12.70;99.90;;;;;;5133557;27;20635;-53
2022/09/16 04:17:24;;;;;;;6.80;2.20;;;12.70;99.90;;;;;;5133221;27;20164;-54
2022/09/16 04:19:51;;;;;;;6.93;2.38;;;12.70;99.90;;;;;;5133145;27;20163;-54
2022/09/16 04:22:17;;;;;;;9.20;2.53;;;12.70;99.90;;;;;;5133094;27;20247;-54
2022/09/16 04:24:43;;;;;;;6.18;2.13;;;12.60;99.90;;;;;;5132842;27;20781;-53
2022/09/16 04:27:09;;;;;;;6.63;2.05;;;12.70;99.90;;;;;;5133008;27;20701;-53
2022/09/16 04:29:34;;;;;;;14.80;3.08;;;12.70;99.90;;;;;;5132967;27;20524;-55
2022/09/16 04:32:00;;;;;;;10.05;2.00;;;12.70;99.90;;;;;;5133279;27;20176;-54
2022/09/16 04:34:26;;;;;;;6.13;1.98;;;12.70;99.90;;;;;;5132912;27;20172;-54
2022/09/16 04:36:51;;;;;;;5.03;1.88;;;12.70;99.90;;;;;;5133203;27;20220;-54
2022/09/16 04:39:17;;;;;;;8.30;2.03;;;12.60;99.90;;;;;;5132927;27;20179;-53
2022/09/16 04:41:42;;;;;;;6.78;2.30;;;12.60;99.90;;;;;;5132594;27;20156;-54
2022/09/16 04:44:09;;;;;;;4.75;2.03;;;12.60;99.90;;;;;;5132789;27;20183;-53
2022/09/16 04:46:35;;;;;;;7.28;2.20;;;12.60;99.90;;;;;;5132761;27;20191;-53
2022/09/16 04:49:00;;;;;;;7.63;2.20;;;12.50;99.90;;;;;;5133064;27;20645;-52
2022/09/16 04:51:27;;;;;;;7.55;2.10;;;12.50;99.90;;;;;;5132435;27;20536;-53
2022/09/16 04:53:54;;;;;;;6.63;1.83;;;12.50;99.90;;;;;;5132587;27;20752;-53
2022/09/16 04:56:23;;;;;;;8.85;2.28;;;12.50;99.90;;;;;;5132664;27;20212;-53
2022/09/16 04:58:52;;;;;;;6.75;2.13;;;12.50;99.90;;;;;;5132713;27;20193;-52
2022/09/16 05:01:23;;;;;;;4.88;2.20;;;12.50;99.90;;;;;;5132893;28;20168;-53
2022/09/16 05:03:51;;;;;;;6.20;2.33;;;12.50;99.90;;;;;;5132731;27;20643;-53
2022/09/16 05:06:20;;;;;;;6.28;1.75;;;12.60;99.90;;;;;;5132451;28;20699;-52
2022/09/16 05:08:46;;;;;;;2.60;1.80;;;12.60;99.90;;;;;;5132653;28;20160;-52
2022/09/16 05:11:14;;;;;;;10.73;2.28;;;12.60;99.90;;;;;;5132582;28;20178;-52
2022/09/16 05:13:40;;;;;;;3.15;2.10;;;12.60;99.90;;;;;;5132610;28;20156;-53
2022/09/16 05:16:09;;;;;;;8.18;2.00;;;12.60;99.90;;;;;;5132496;28;20251;-53
2022/09/16 05:18:36;;;;;;;11.95;1.95;;;12.60;99.90;;;;;;5132212;28;20629;-52
2022/09/16 05:21:04;;;;;;;4.53;1.95;;;12.60;99.90;;;;;;5132754;28;20164;-53
2022/09/16 05:23:31;;;;;;;4.72;1.83;;;12.60;99.90;;;;;;5132815;28;20172;-53
2022/09/16 05:26:05;;;;;;;5.03;2.17;;;12.60;99.90;;;;;;5132615;28;20613;-52
2022/09/16 05:28:31;;;;;;;4.95;2.10;;;12.60;99.90;;;;;;5132645;28;20583;-52
2022/09/16 05:31:10;;;;;;;4.80;1.90;;;12.60;99.90;;;;;;5132615;28;20198;-53
2022/09/16 05:33:36;;;;;;;4.63;1.92;;;12.60;99.90;;;;;;5132355;28;20185;-53
2022/09/16 05:36:10;;;;;;;10.20;2.13;;;12.60;99.90;;;;;;5132608;28;20172;-53
2022/09/16 05:38:36;;;;;;;7.50;2.38;;;12.60;99.90;;;;;;5131039;28;20239;-53
2022/09/16 05:41:03;;;;;;;5.40;1.98;;;12.60;99.90;;;;;;5132495;28;20191;-53
2022/09/16 05:43:29;;;;;;;6.07;2.25;;;12.60;99.90;;;;;;5132539;28;20629;-53
2022/09/16 05:45:55;;;;;;;6.65;1.60;;;12.70;99.90;;;;;;5132032;28;20203;-53
2022/09/16 05:48:22;;;;;;;4.90;2.42;;;12.70;99.90;;;;;;5132274;28;20169;-53
2022/09/16 05:50:58;;;;;;;5.28;1.65;;;12.70;99.90;;;;;;5132170;28;20178;-53
2022/09/16 05:53:25;;;;;;;6.97;1.90;;;12.70;99.90;;;;;;5131881;28;20691;-53
2022/09/16 05:55:59;;;;;;;6.70;1.73;;;12.70;99.90;;;;;;5130703;28;20263;-53
2022/09/16 05:58:27;;;;;;;8.55;2.20;;;12.70;99.90;;;;;;5132005;28;20300;-53
2022/09/16 06:01:13;;;;;;;5.05;1.75;;;12.80;99.90;;;;;;5131914;28;20700;-54
2022/09/16 06:03:40;;;;;;;10.00;1.90;;;12.80;99.90;;;;;;5132591;27;20605;-54
2022/09/16 06:06:27;;;;;;;6.30;2.00;;;12.80;99.90;;;;;;5135556;27;20251;-53
2022/09/16 06:08:57;;;;;;;3.20;1.52;;;12.80;99.90;;;;;;5135630;27;20160;-53
2022/09/16 06:11:24;;;;;;;3.20;1.70;;;12.80;99.90;;;;;;5135666;27;20164;-53
2022/09/16 06:13:55;;;;;;;4.22;1.90;;;12.80;99.90;;;;;;5134460;27;20168;-53
2022/09/16 06:16:22;;;;;;;6.30;2.22;;;12.80;99.90;;;;;;5135480;27;20164;-54
2022/09/16 06:18:47;;;;;;;5.43;1.80;;;12.80;99.90;;;;;;5134260;27;20172;-52
2022/09/16 06:21:13;;;;;;;6.90;2.03;;;12.90;99.90;;;;;;5135390;27;20183;-53
2022/09/16 06:23:40;;;;;;;6.22;2.05;;;12.90;99.90;;;;;;5135441;27;20159;-53
2022/09/16 06:26:10;;;;;;;6.15;1.70;;;13.00;99.90;;;;;;5133958;27;20218;-56
2022/09/16 06:28:36;;;;;;;6.50;2.03;;;13.00;99.90;;;;;;5135325;27;20156;-55
2022/09/16 06:31:09;;;;;;;2.72;1.55;;;13.10;99.90;;;;;;5135544;27;20272;-53
2022/09/16 06:33:35;;;;;;;9.65;2.03;;;13.10;99.90;;;;;;5135249;27;20171;-53
2022/09/16 06:36:09;;;;;;;4.78;1.58;;;13.10;99.90;;;;;;5135528;27;20160;-53
2022/09/16 06:38:35;;;;;;;6.65;2.00;;;13.10;99.90;;;;;;5135022;27;20284;-63
2022/09/16 06:41:06;;;;;;;5.38;1.58;;;13.10;99.90;;;;;;5135577;27;20624;-54
2022/09/16 06:43:32;;;;;;;7.38;1.88;;;11.60;99.90;;;;;;5135267;27;20647;-56
2022/09/16 06:46:01;;;;;;;3.42;1.65;;;13.20;99.90;;;;;;5135236;27;20203;-55
2022/09/16 06:48:27;;;;;;;2.90;1.45;;;13.40;99.90;;;;;;5135139;27;20172;-54
2022/09/16 06:50:58;;;;;;;6.60;1.88;;;13.20;99.90;;;;;;5133594;27;20597;-54
2022/09/16 06:53:25;;;;;;;4.65;1.60;;;13.40;99.90;;;;;;5134719;27;20699;-54
2022/09/16 06:55:50;;;;;;;3.08;1.40;;;13.40;99.90;;;;;;5134682;27;20644;-52
2022/09/16 06:58:16;;;;;;;4.32;1.48;;;13.40;99.90;;;;;;5134713;27;20164;-52
2022/09/16 07:00:41;;;;;;;4.65;1.80;;;13.50;99.90;;;;;;5134639;27;20525;-53
2022/09/16 07:03:07;;;;;;;6.55;1.73;;;13.60;99.90;;;;;;5134620;27;20164;-53
2022/09/16 07:05:33;;;;;;;5.75;1.50;;;13.60;99.90;;;;;;5134520;27;20268;-53
2022/09/16 07:07:59;;;;;;;8.45;1.70;;;13.60;99.90;;;;;;5135062;27;20160;-53
2022/09/16 07:10:25;;;;;;;3.38;1.58;;;13.60;99.90;;;;;;5134454;27;20175;-52
2022/09/16 07:12:50;;;;;;;4.03;1.90;;;13.70;99.90;;;;;;5134653;27;20251;-53
2022/09/16 07:15:16;;;;;;;6.45;1.90;;;13.70;99.90;;;;;;5134054;27;20549;-53
2022/09/16 07:17:42;;;;;;;3.03;1.33;;;13.80;99.90;;;;;;5134682;27;20297;-54
2022/09/16 07:20:08;;;;;;;7.00;1.65;;;13.80;99.90;;;;;;5134596;27;20175;-52
2022/09/16 07:22:34;;;;;;;3.58;1.40;;;13.90;99.90;;;;;;5134320;27;20285;-54
2022/09/16 07:24:59;;;;;;;2.65;1.40;;;13.90;99.90;;;;;;5134497;27;20291;-55
2022/09/16 07:27:25;;;;;;;4.30;1.33;;;13.90;99.90;;;;;;5134073;27;20164;-51
2022/09/16 07:29:52;;;;;;;4.97;1.42;;;13.90;99.90;;;;;;5151678;27;20175;-55
2022/09/16 07:32:18;;;;;;;3.13;1.17;;;14.00;99.90;;;;;;5153718;27;20167;-68
2022/09/16 07:34:43;;;;;;;5.10;1.55;;;14.30;99.90;;;;;;5153647;27;20163;-55
2022/09/16 07:37:09;;;;;;;6.72;1.40;;;14.40;99.90;;;;;;5153596;27;20231;-52
2022/09/16 07:39:35;;;;;;;3.30;1.65;;;14.40;99.90;;;;;;5153566;27;20167;-53
2022/09/16 07:42:02;;;;;;;4.57;1.33;;;14.40;99.90;;;;;;5153787;27;20171;-52
2022/09/16 07:44:28;;;;;;;5.70;1.38;;;14.40;99.90;;;;;;5144019;27;20196;-51
2022/09/16 07:46:54;;;;;;;3.28;1.20;;;14.40;99.90;;;;;;5132581;27;20244;-52
2022/09/16 07:49:19;;;;;;;5.15;1.67;;;14.40;99.90;;;;;;5132173;27;20247;-50
2022/09/16 07:51:45;;;;;;;4.35;1.25;;;14.50;99.90;;;;;;5132541;27;20164;-54
2022/09/16 07:54:14;;;;;;;7.40;1.45;;;14.50;99.90;;;;;;5132390;27;20211;-51
2022/09/16 07:56:42;;;;;;;3.00;1.38;;;14.60;99.90;;;;;;5132368;27;20640;-54
2022/09/16 07:59:14;;;;;;;7.47;1.50;;;14.60;99.90;;;;;;5132502;27;20171;-56
2022/09/16 08:01:39;;;;;;;6.78;1.33;;;14.70;99.90;;;;;;5132228;27;20168;-54
2022/09/16 08:04:05;;;;;;;5.65;1.13;;;14.80;99.90;;;;;;5132155;27;20168;-55
2022/09/16 08:06:32;;;;;;;4.68;2.05;;;14.80;99.90;;;;;;5132464;27;20180;-56
2022/09/16 08:08:59;;;;;;;2.22;1.38;;;14.80;99.90;;;;;;5132360;27;20171;-58
2022/09/16 08:11:27;;;;;;;3.80;1.60;;;14.90;99.90;;;;;;5132343;27;20167;-55
2022/09/16 08:13:52;;;;;;;5.60;1.40;;;15.10;99.90;;;;;;5132012;27;20164;-53
2022/09/16 08:16:20;;;;;;;3.28;1.55;;;15.10;99.90;;;;;;5132110;27;20561;-55
2022/09/16 08:18:48;;;;;;;4.90;1.50;;;15.00;99.90;;;;;;5132044;27;20636;-56
2022/09/16 08:21:18;;;;;;;2.78;1.40;;;15.00;99.90;;;;;;5131930;27;20152;-54
2022/09/16 08:23:44;;;;;;;2.38;0.90;;;15.10;99.90;;;;;;5132211;27;20539;-55
2022/09/16 08:26:12;;;;;;;3.53;1.13;;;15.30;99.90;;;;;;5131086;27;20212;-55
2022/09/16 08:28:40;;;;;;;2.63;1.42;;;15.60;99.90;;;;;;5131970;27;20271;-54
2022/09/16 08:31:06;;;;;;;4.25;1.40;;;15.60;99.90;;;;;;5131809;27;20213;-54
2022/09/16 08:33:32;;;;;;;4.30;1.00;;;15.30;99.90;;;;;;5131685;27;20632;-54
2022/09/16 08:35:58;;;;;;;3.75;1.17;;;15.20;99.90;;;;;;5131893;27;20195;-53
2022/09/16 08:38:24;;;;;;;3.80;1.20;;;15.60;99.90;;;;;;5132033;27;20653;-54
2022/09/16 08:40:54;;;;;;;5.28;1.30;;;15.50;99.90;;;;;;5131770;27;20172;-54
2022/09/16 08:44:04;;;;;;;8.88;1.70;;;15.50;99.90;;;;;;5131529;27;20164;-54
2022/09/16 08:46:42;;;;;;;2.42;0.95;;;15.40;99.90;;;;;;5131672;27;20196;-54
2022/09/16 08:49:34;;;;;;;3.28;1.02;;;15.90;99.90;;;;;;5131575;27;20175;-53
2022/09/16 08:52:09;;;;;;;4.30;1.23;;;16.00;99.90;;;;;;5131804;27;20640;-54
2022/09/16 08:54:46;;;;;;;3.90;1.15;;;15.90;99.90;;;;;;5131377;27;20291;-54
2022/09/16 08:57:21;;;;;;;1.95;1.50;;;15.90;99.90;;;;;;5131447;27;20230;-54
2022/09/16 08:59:58;;;;;;;2.10;1.00;;;15.90;99.90;;;;;;5131262;27;20179;-54
2022/09/16 09:03:04;;;;;;;5.40;1.38;;;16.00;99.90;;;;;;5131514;27;20156;-54
2022/09/16 09:05:52;;;;;;;2.00;1.35;;;15.90;99.90;;;;;;5131578;28;20203;-54
2022/09/16 09:08:49;;;;;;;3.50;1.30;;;16.30;99.90;;;;;;5131940;28;20247;-54
2022/09/16 09:11:37;;;;;;;2.13;0.88;;;16.30;99.90;;;;;;5131164;27;20152;-54
2022/09/16 09:14:03;;;;;;;3.70;1.08;;;16.60;99.90;;;;;;5131315;27;20160;-54
2022/09/16 09:16:39;;;;;;;2.45;1.15;;;16.40;99.90;;;;;;5131663;28;20171;-53
2022/09/16 09:19:20;;;;;;;1.75;1.08;;;16.40;99.90;;;;;;5131203;28;20224;-54
2022/09/16 09:21:57;;;;;;;2.17;0.80;;;16.10;99.90;;;;;;5131330;28;20187;-54
2022/09/16 09:24:44;;;;;;;5.25;1.35;;;15.90;99.90;;;;;;5131215;28;20168;-53
2022/09/16 09:27:20;;;;;;;1.65;0.82;;;15.90;99.90;;;;;;5131422;27;20203;-53
2022/09/16 09:30:02;;;;;;;3.40;0.95;;;15.90;99.90;;;;;;5131315;28;20159;-53
2022/09/16 09:32:53;;;;;;;2.65;1.52;;;15.90;99.90;;;;;;5131485;28;20167;-53
2022/09/16 09:35:30;;;;;;;3.13;1.15;;;15.80;99.90;;;;;;5130727;27;20172;-53
2022/09/16 09:38:28;;;;;;;5.18;1.58;;;15.70;99.90;;;;;;5132563;27;20175;-53
2022/09/16 09:41:03;;;;;;;4.22;1.05;;;15.60;99.90;;;;;;5135139;27;20531;-53
2022/09/16 09:43:40;;;;;;;3.97;1.10;;;16.00;99.90;;;;;;5135591;27;20163;-53
2022/09/16 09:46:14;;;;;;;3.90;0.90;;;16.20;99.90;;;;;;5134910;27;20284;-53
2022/09/16 09:48:52;;;;;;;8.02;1.20;;;16.20;99.90;;;;;;5134856;27;20183;-53
2022/09/16 09:51:30;;;;;;;2.00;1.30;;;16.40;99.90;;;;;;5134843;27;20180;-53
2022/09/16 09:54:01;;;;;;;4.40;1.15;;;16.50;99.90;;;;;;5134782;27;20235;-53
2022/09/16 09:56:32;;;;;;;3.65;1.15;;;16.40;99.90;;;;;;5135137;27;20191;-53
2022/09/16 09:59:01;;;;;;;2.20;0.85;;;16.50;99.90;;;;;;5135000;27;20172;-53
2022/09/16 10:01:27;;;;;;;2.00;0.90;;;16.60;99.90;;;;;;5135038;27;20264;-53
2022/09/16 10:03:54;;;;;;;2.25;1.02;;;17.00;99.90;;;;;;5134133;27;20259;-53
2022/09/16 10:06:28;;;;;;;4.72;1.20;;;17.10;99.90;;;;;;5134384;27;20215;-53
2022/09/16 10:08:56;;;;;;;2.65;1.13;;;17.40;99.90;;;;;;5134615;27;20243;-54
2022/09/16 10:11:32;;;;;;;3.17;1.05;;;17.40;99.90;;;;;;5134437;27;20648;-53
2022/09/16 10:14:00;;;;;;;1.88;0.90;;;17.10;99.90;;;;;;5134704;27;20172;-53
2022/09/16 10:16:37;;;;;;;3.35;0.82;;;17.00;99.90;;;;;;5134690;27;20170;-53
2022/09/16 10:19:02;;;;;;;3.17;1.13;;;17.10;99.90;;;;;;5134272;27;20168;-53
2022/09/16 10:21:52;;;;;;;2.78;1.25;;;17.10;99.90;;;;;;5134407;27;20167;-53
2022/09/16 10:24:33;;;;;;;5.07;1.13;;;17.00;99.90;;;;;;5134258;27;20168;-53
2022/09/16 10:27:01;;;;;;;3.80;1.35;;;17.20;99.90;;;;;;5134641;27;20183;-53
2022/09/16 10:29:27;;;;;;;2.92;1.00;;;17.40;99.90;;;;;;5134507;27;20168;-52
2022/09/16 10:31:54;;;;;;;3.60;1.17;;;17.40;99.90;;;;;;5133975;27;20712;-53
2022/09/16 10:34:26;;;;;;;1.95;0.77;;;17.10;99.90;;;;;;5134327;27;20212;-52
2022/09/16 10:37:02;;;;;;;3.85;0.80;;;16.70;99.90;;;;;;5134248;27;20156;-52
2022/09/16 10:39:28;;;;;;;4.47;1.00;;;16.50;99.90;;;;;;5134349;27;20175;-52
2022/09/16 10:41:54;;;;;;;3.25;0.95;;;16.40;99.90;;;;;;5133777;27;20164;-52
2022/09/16 10:44:19;;;;;;;5.18;1.27;;;16.30;99.90;;;;;;5133889;27;20179;-52
2022/09/16 10:47:02;;;;;;;3.05;1.17;;;16.20;99.90;;;;;;5132506;27;20195;-53
2022/09/16 10:49:43;;;;;;;2.30;1.20;;;16.20;99.90;;;;;;5133275;27;20172;-52
2022/09/16 10:52:19;;;;;;;1.50;0.90;;;16.20;99.90;;;;;;5133723;27;20576;-52
2022/09/16 10:54:46;;;;;;;3.42;0.90;;;16.30;99.90;;;;;;5133472;27;20230;-52
2022/09/16 10:57:25;;;;;;;8.73;1.10;;;16.50;99.90;;;;;;5133400;27;20176;-52
2022/09/16 11:00:07;;;;;;;5.38;2.00;;;16.80;99.90;;;;;;5133284;27;20220;-52
2022/09/16 11:02:50;;;;;;;2.35;0.80;;;16.70;99.90;;;;;;5133815;27;20156;-52
2022/09/16 11:05:45;;;;;;;4.00;1.10;;;17.00;99.90;;;;;;5133639;27;20207;-52
2022/09/16 11:08:16;;;;;;;1.65;0.88;;;16.80;99.90;;;;;;5133476;27;20164;-52
2022/09/16 11:11:13;;;;;;;3.92;1.05;;;16.90;99.90;;;;;;5133430;27;20170;-53
2022/09/16 11:14:20;;;;;;;5.18;1.23;;;16.70;99.90;;;;;;5133297;27;20549;-53
2022/09/16 11:17:11;;;;;;;1.63;0.80;;;17.20;99.90;;;;;;5116917;27;20183;-53
2022/09/16 11:20:12;;;;;;;1.67;0.88;;;17.60;99.90;;;;;;5133196;27;20167;-53
2022/09/16 11:23:15;;;;;;;2.95;0.75;;;17.70;99.90;;;;;;5133126;27;20453;-53
2022/09/16 11:25:59;;;;;;;3.50;1.38;;;17.70;99.90;;;;;;5132974;27;20565;-53
2022/09/16 11:28:43;;;;;;;2.55;0.80;;;17.50;99.90;;;;;;5132951;27;20242;-53
2022/09/16 11:31:27;;;;;;;3.53;0.93;;;17.20;99.90;;;;;;5132915;27;20159;-53
2022/09/16 11:34:31;;;;;;;1.85;0.95;;;17.10;99.90;;;;;;5132857;27;20694;-53
2022/09/16 11:37:05;;;;;;;2.25;0.68;;;16.80;99.90;;;;;;5130929;27;20271;-53
2022/09/16 11:39:56;;;;;;;8.13;1.00;;;17.00;99.90;;;;;;5133077;27;20697;-53
2022/09/16 11:42:48;;;;;;;2.63;1.13;;;16.90;99.90;;;;;;5132630;27;20568;-54
2022/09/16 11:45:40;;;;;;;1.95;0.93;;;16.90;99.90;;;;;;5132939;27;20214;-53
2022/09/16 11:48:29;;;;;;;3.45;0.98;;;17.00;99.90;;;;;;5131315;27;20172;-53
2022/09/16 11:51:22;;;;;;;2.78;0.95;;;17.30;99.90;;;;;;5132559;27;20255;-53
2022/09/16 11:54:15;;;;;;;3.92;1.05;;;17.60;99.90;;;;;;5131489;27;20310;-53
2022/09/16 11:56:47;;;;;;;4.50;1.00;;;17.80;99.90;;;;;;5132408;27;20640;-54
2022/09/16 11:59:31;;;;;;;0.93;0.85;;;18.10;99.90;;;;;;5131089;27;20200;-53
2022/09/16 12:02:15;;;;;;;1.05;0.90;;;18.20;99.90;;;;;;5131586;27;20274;-53
2022/09/16 12:04:56;;;;;;;2.15;1.02;;;18.20;99.90;;;;;;5132113;27;20532;-53
2022/09/16 12:07:32;;;;;;;5.80;1.15;;;18.00;99.90;;;;;;5132247;27;20256;-53
2022/09/16 12:10:11;;;;;;;4.05;0.90;;;17.50;99.90;;;;;;5132725;27;20521;-53
2022/09/16 12:12:43;;;;;;;7.10;1.50;;;16.10;99.90;;;;;;5132151;27;20170;-53
2022/09/16 12:15:36;;;;;;;6.55;1.40;;;15.70;99.90;;;;;;5132129;27;20164;-52
2022/09/16 12:18:15;;;;;;;6.50;0.98;;;15.30;99.90;;;;;;5130781;27;20168;-53
2022/09/16 12:20:51;;;;;;;4.03;1.20;;;15.00;99.90;;;;;;5132004;27;20213;-53
2022/09/16 12:23:21;;;;;;;2.83;1.02;;;14.90;99.90;;;;;;5131905;27;20180;-53
2022/09/16 12:26:43;;;;;;;2.35;0.98;;;14.90;99.90;;;;;;5131827;27;20249;-53
2022/09/16 12:29:23;;;;;;;3.00;0.77;;;15.10;99.90;;;;;;5098477;28;20281;-53
2022/09/16 12:32:02;;;;;;;1.73;0.88;;;15.30;99.90;;;;;;5129329;27;20188;-53
2022/09/16 12:34:37;;;;;;;2.15;1.10;;;15.10;99.90;;;;;;5132104;27;20243;-53
2022/09/16 12:37:11;;;;;;;3.90;0.70;;;15.00;99.90;;;;;;5131732;27;20770;-53
2022/09/16 12:39:37;;;;;;;1.52;0.60;;;15.00;99.90;;;;;;5131673;27;20163;-53
2022/09/16 12:42:05;;;;;;;3.00;0.65;;;15.10;99.90;;;;;;5131890;27;20247;-54
2022/09/16 12:44:49;;;;;;;0.57;0.50;;;15.00;99.90;;;;;;5131524;27;20734;-53
2022/09/16 12:47:42;;;;;;;2.90;0.90;;;14.80;99.90;;;;;;5131641;27;20713;-54
2022/09/16 12:50:18;;;;;;;1.40;0.65;;;15.00;99.90;;;;;;5131354;27;20164;-54
2022/09/16 12:52:44;;;;;;;2.25;1.20;;;15.00;99.90;;;;;;5131227;27;20251;-53
2022/09/16 12:55:47;;;;;;;1.08;0.60;;;15.00;99.90;;;;;;5131398;27;20255;-53
2022/09/16 12:58:42;;;;;;;2.60;0.65;;;15.10;99.90;;;;;;5088289;28;20677;-53
2022/09/16 13:01:43;;;;;;;1.05;0.80;;;15.00;99.90;;;;;;5131050;28;20240;-53
2022/09/16 13:04:19;;;;;;;1.45;0.88;;;15.00;99.90;;;;;;5095303;28;20627;-54
2022/09/16 13:06:50;;;;;;;2.13;1.30;;;15.00;99.90;;;;;;5131335;27;20172;-53
2022/09/16 13:09:22;;;;;;;2.28;0.80;;;15.00;99.90;;;;;;5131605;28;20171;-52
2022/09/16 13:12:04;;;;;;;1.27;0.82;;;15.00;99.90;;;;;;5131051;27;20164;-53
2022/09/16 13:14:49;;;;;;;1.35;0.40;;;15.00;99.90;;;;;;5136251;27;20172;-53
2022/09/16 13:17:28;;;;;;;3.28;0.93;;;15.00;99.90;;;;;;5135660;27;20160;-53
2022/09/16 13:20:16;;;;;;;1.40;0.60;;;14.90;99.90;;;;;;5135473;27;20635;-53